Time;durP1;ratioP1;P1;durP2;ratioP2;P2;SDS_P1;SDS_P2;PMS_P1;PMS_P2;Temp;Humidity;BMP_temperature;BMP_pressure;BME280_temperature;BME280_humidity;BME280_pressure;Samples;Min_cycle;Max_cycle;Signal;HPM_P1;HPM_P2
2022/10/07 00:00:41;;;;;;;25.23;12.23;;;;;;;;;;5052709;28;20052;-73
2022/10/07 00:03:45;;;;;;;19.42;12.27;;;;;;;;;;5051434;28;20044;-74
2022/10/07 00:06:50;;;;;;;21.38;10.30;;;;;;;;;;5051668;28;20048;-72
2022/10/07 00:09:54;;;;;;;24.20;11.55;;;;;;;;;;5052563;28;20040;-74
2022/10/07 00:13:00;;;;;;;19.40;10.60;;;;;;;;;;5052490;28;20058;-75
2022/10/07 00:16:05;;;;;;;24.17;11.02;;;;;;;;;;5052231;28;20389;-74
2022/10/07 00:19:11;;;;;;;21.30;11.25;;;;;;;;;;5051875;28;20040;-72
2022/10/07 00:22:15;;;;;;;23.92;11.35;;;;;;;;;;5051936;28;20404;-74
2022/10/07 00:25:20;;;;;;;18.75;11.15;;;;;;;;;;5052329;28;20112;-74
2022/10/07 00:28:24;;;;;;;21.77;10.60;;;;;;;;;;5051472;28;20059;-72
2022/10/07 00:31:30;;;;;;;19.40;10.82;;;;;;;;;;5051807;28;20532;-73
2022/10/07 00:34:34;;;;;;;24.20;11.68;;;;;;;;;;5052281;28;20040;-73
2022/10/07 00:37:41;;;;;;;25.48;11.52;;;;;;;;;;5051641;28;20048;-74
2022/10/07 00:40:46;;;;;;;19.45;10.80;;;;;;;;;;5051995;28;20043;-74
2022/10/07 00:43:50;;;;;;;22.08;11.25;;;;;;;;;;5051625;28;20236;-73
2022/10/07 00:46:55;;;;;;;18.33;10.38;;;;;;;;;;5051819;28;20295;-73
2022/10/07 00:50:02;;;;;;;23.52;11.80;;;;;;;;;;5051844;28;20535;-73
2022/10/07 00:53:08;;;;;;;23.45;11.70;;;;;;;;;;5051365;28;20412;-73
2022/10/07 00:56:15;;;;;;;31.95;11.82;;;;;;;;;;5051723;28;20036;-75
2022/10/07 00:59:20;;;;;;;24.60;11.57;;;;;;;;;;5051536;28;20048;-73
2022/10/07 01:02:25;;;;;;;21.40;10.38;;;;;;;;;;5051412;28;20036;-74
2022/10/07 01:05:30;;;;;;;21.90;12.07;;;;;;;;;;5051435;28;20512;-75
2022/10/07 01:08:34;;;;;;;20.60;11.23;;;;;;;;;;5050339;28;20040;-74
2022/10/07 01:11:50;;;;;;;23.88;11.25;;;;;;;;;;5051232;28;20051;-74
2022/10/07 01:15:04;;;;;;;18.85;10.90;;;;;;;;;;5050305;28;20052;-74
2022/10/07 01:18:08;;;;;;;18.90;10.23;;;;;;;;;;5051919;28;20039;-74
2022/10/07 01:21:42;;;;;;;21.75;11.27;;;;;;;;;;5051355;28;20511;-74
2022/10/07 01:25:03;;;;;;;24.83;11.18;;;;;;;;;;5049703;28;20043;-72
2022/10/07 01:28:27;;;;;;;22.17;10.80;;;;;;;;;;5050031;28;20052;-73
2022/10/07 01:31:36;;;;;;;27.83;10.73;;;;;;;;;;5050789;28;20044;-74
2022/10/07 01:34:41;;;;;;;16.67;9.90;;;;;;;;;;5051198;28;20048;-74
2022/10/07 01:37:48;;;;;;;20.27;10.80;;;;;;;;;;5038529;28;20088;-73
2022/10/07 01:41:10;;;;;;;20.52;11.27;;;;;;;;;;5050272;28;20036;-73
2022/10/07 01:44:14;;;;;;;20.73;11.43;;;;;;;;;;5050957;28;20048;-74
2022/10/07 01:47:19;;;;;;;21.35;10.65;;;;;;;;;;5050894;28;20048;-73
2022/10/07 01:50:27;;;;;;;23.90;11.27;;;;;;;;;;5050193;28;20408;-74
2022/10/07 01:53:50;;;;;;;19.80;11.65;;;;;;;;;;5050015;28;20052;-72
2022/10/07 01:56:57;;;;;;;22.05;11.75;;;;;;;;;;5050186;28;20219;-73
2022/10/07 02:00:12;;;;;;;22.48;11.50;;;;;;;;;;5049871;28;20064;-73
2022/10/07 02:03:27;;;;;;;21.85;11.52;;;;;;;;;;5050059;28;20504;-74
2022/10/07 02:06:31;;;;;;;18.42;11.18;;;;;;;;;;5041553;28;20047;-74
2022/10/07 02:09:45;;;;;;;21.85;11.30;;;;;;;;;;5053621;28;20104;-73
2022/10/07 02:13:16;;;;;;;25.90;11.90;;;;;;;;;;5054636;28;20048;-74
2022/10/07 02:16:24;;;;;;;25.17;11.40;;;;;;;;;;5054479;28;20495;-74
2022/10/07 02:19:38;;;;;;;22.65;11.38;;;;;;;;;;5053709;28;20044;-73
2022/10/07 02:22:43;;;;;;;19.17;12.15;;;;;;;;;;5054594;28;20048;-75
2022/10/07 02:25:49;;;;;;;20.50;10.85;;;;;;;;;;5053458;28;20048;-73
2022/10/07 02:28:54;;;;;;;22.48;11.90;;;;;;;;;;5053899;28;20401;-74
2022/10/07 02:32:02;;;;;;;24.40;11.23;;;;;;;;;;5054053;28;20056;-73
2022/10/07 02:35:12;;;;;;;25.33;11.32;;;;;;;;;;5054077;28;20032;-74
2022/10/07 02:38:17;;;;;;;23.67;10.35;;;;;;;;;;5041482;28;20036;-74
2022/10/07 02:41:32;;;;;;;19.33;10.88;;;;;;;;;;5053192;28;20515;-73
2022/10/07 02:44:48;;;;;;;19.40;11.13;;;;;;;;;;5053266;28;20044;-73
2022/10/07 02:48:08;;;;;;;20.80;10.80;;;;;;;;;;5053195;28;20396;-72
2022/10/07 02:51:17;;;;;;;21.95;10.50;;;;;;;;;;5053950;28;20417;-75
2022/10/07 02:54:24;;;;;;;21.85;10.35;;;;;;;;;;5052809;28;20040;-74
2022/10/07 02:57:30;;;;;;;21.55;10.57;;;;;;;;;;5053825;28;20424;-74
2022/10/07 03:00:37;;;;;;;20.45;11.13;;;;;;;;;;5053071;28;20064;-74
2022/10/07 03:03:42;;;;;;;22.88;10.50;;;;;;;;;;5052890;28;20495;-74
2022/10/07 03:06:46;;;;;;;21.27;12.10;;;;;;;;;;5053663;28;20044;-74
2022/10/07 03:09:51;;;;;;;16.63;10.35;;;;;;;;;;5053322;28;20056;-75
2022/10/07 03:12:55;;;;;;;20.83;10.75;;;;;;;;;;5053291;28;20047;-73
2022/10/07 03:16:02;;;;;;;26.23;11.25;;;;;;;;;;5052445;28;20044;-73
2022/10/07 03:19:06;;;;;;;20.63;10.98;;;;;;;;;;5052579;28;20067;-73
2022/10/07 03:22:31;;;;;;;20.13;10.20;;;;;;;;;;5053271;28;20039;-73
2022/10/07 03:25:35;;;;;;;20.90;9.98;;;;;;;;;;5052224;28;20040;-72
2022/10/07 03:28:39;;;;;;;22.80;11.07;;;;;;;;;;5052652;28;20523;-74
2022/10/07 03:31:44;;;;;;;21.83;10.90;;;;;;;;;;5052809;28;20052;-73
2022/10/07 03:34:48;;;;;;;18.83;11.00;;;;;;;;;;5052939;28;20039;-74
2022/10/07 03:37:53;;;;;;;21.35;10.68;;;;;;;;;;5052173;28;20063;-75
2022/10/07 03:41:00;;;;;;;20.52;10.73;;;;;;;;;;5053059;28;20044;-74
2022/10/07 03:44:05;;;;;;;26.90;11.27;;;;;;;;;;5052094;28;20040;-73
2022/10/07 03:47:09;;;;;;;20.10;10.23;;;;;;;;;;5051811;28;20036;-73
2022/10/07 03:50:13;;;;;;;19.85;10.43;;;;;;;;;;5051977;28;20045;-73
2022/10/07 03:53:18;;;;;;;27.98;10.48;;;;;;;;;;5051884;28;20516;-74
2022/10/07 03:56:23;;;;;;;19.45;9.88;;;;;;;;;;5051574;28;20503;-74
2022/10/07 03:59:27;;;;;;;19.80;9.88;;;;;;;;;;5052312;28;20033;-74
2022/10/07 04:02:32;;;;;;;24.33;11.40;;;;;;;;;;5051779;28;20037;-74
2022/10/07 04:05:37;;;;;;;20.63;10.00;;;;;;;;;;5052433;28;20040;-73
2022/10/07 04:08:42;;;;;;;15.45;10.25;;;;;;;;;;5051567;28;20047;-74
2022/10/07 04:11:46;;;;;;;18.73;10.93;;;;;;;;;;5039840;28;20040;-73
2022/10/07 04:14:50;;;;;;;21.48;9.82;;;;;;;;;;5051364;28;20531;-74
2022/10/07 04:17:59;;;;;;;21.98;10.95;;;;;;;;;;5051462;28;20036;-74
2022/10/07 04:21:05;;;;;;;22.85;10.80;;;;;;;;;;5051290;28;20044;-77
2022/10/07 04:24:11;;;;;;;20.00;10.93;;;;;;;;;;5040211;28;20215;-78
2022/10/07 04:27:16;;;;;;;28.95;10.80;;;;;;;;;;5051586;28;20048;-78
2022/10/07 04:30:21;;;;;;;18.33;10.38;;;;;;;;;;5050694;28;20052;-77
2022/10/07 04:33:25;;;;;;;20.88;10.15;;;;;;;;;;5050604;28;20052;-77
2022/10/07 04:36:32;;;;;;;16.58;10.05;;;;;;;;;;5050897;28;20041;-79
2022/10/07 04:39:42;;;;;;;16.73;9.90;;;;;;;;;;5051185;28;20051;-77
2022/10/07 04:46:12;;;;;;;20.38;9.68;;;;;;;;;;5050696;28;20421;-78
2022/10/07 04:49:22;;;;;;;23.33;10.63;;;;;;;;;;5050893;28;20041;-78
2022/10/07 04:52:27;;;;;;;21.70;11.82;;;;;;;;;;5050721;28;20515;-79
2022/10/07 04:55:38;;;;;;;23.50;10.93;;;;;;;;;;5051526;28;20033;-78
2022/10/07 04:58:43;;;;;;;19.73;10.70;;;;;;;;;;5050804;28;20310;-76
2022/10/07 05:01:48;;;;;;;24.45;12.13;;;;;;;;;;5050859;28;20040;-77
2022/10/07 05:04:53;;;;;;;29.95;14.75;;;;;;;;;;5050474;28;20047;-78
2022/10/07 05:07:57;;;;;;;32.45;11.55;;;;;;;;;;5050547;28;20199;-77
2022/10/07 05:11:03;;;;;;;27.90;12.15;;;;;;;;;;5038919;28;20127;-78
2022/10/07 05:14:20;;;;;;;29.13;11.07;;;;;;;;;;5050493;28;20079;-79
2022/10/07 05:17:24;;;;;;;17.65;10.32;;;;;;;;;;5050159;28;20511;-76
2022/10/07 05:20:29;;;;;;;18.27;10.45;;;;;;;;;;5050518;28;20056;-77
2022/10/07 05:23:37;;;;;;;24.02;11.57;;;;;;;;;;5050924;28;20048;-77
2022/10/07 05:26:44;;;;;;;21.90;11.67;;;;;;;;;;5039187;28;20056;-76
2022/10/07 05:29:49;;;;;;;34.45;12.38;;;;;;;;;;5050201;28;20040;-76
2022/10/07 05:32:54;;;;;;;19.52;11.52;;;;;;;;;;5038499;28;20052;-78
2022/10/07 05:36:00;;;;;;;46.90;14.88;;;;;;;;;;5050358;28;20396;-78
2022/10/07 05:39:04;;;;;;;46.95;16.65;;;;;;;;;;5050547;28;20090;-78
2022/10/07 05:42:19;;;;;;;32.85;13.48;;;;;;;;;;5049885;28;20048;-77
2022/10/07 05:45:33;;;;;;;36.28;14.75;;;;;;;;;;5050232;28;20559;-79
2022/10/07 05:48:38;;;;;;;34.67;13.60;;;;;;;;;;5049911;28;20500;-78
2022/10/07 05:51:43;;;;;;;35.72;12.35;;;;;;;;;;5038219;28;20059;-78
2022/10/07 05:54:48;;;;;;;30.15;12.45;;;;;;;;;;5049842;28;20048;-77
2022/10/07 05:57:53;;;;;;;32.13;12.20;;;;;;;;;;5050077;28;20119;-77
2022/10/07 06:00:58;;;;;;;30.27;11.05;;;;;;;;;;5050662;28;20044;-78
2022/10/07 06:04:06;;;;;;;29.33;10.95;;;;;;;;;;5038568;28;20044;-77
2022/10/07 06:07:13;;;;;;;37.58;11.45;;;;;;;;;;5038060;28;20048;-78
2022/10/07 06:13:40;;;;;;;29.75;11.15;;;;;;;;;;5049262;28;20124;-78
2022/10/07 06:16:44;;;;;;;26.05;11.27;;;;;;;;;;5050281;28;20504;-77
2022/10/07 06:19:48;;;;;;;23.45;10.85;;;;;;;;;;5049315;28;20044;-76
2022/10/07 06:22:57;;;;;;;20.40;11.32;;;;;;;;;;5049543;28;20045;-77
2022/10/07 06:26:03;;;;;;;33.40;14.25;;;;;;;;;;5049693;28;20056;-78
2022/10/07 06:29:08;;;;;;;35.75;13.95;;;;;;;;;;5049227;28;20048;-77
2022/10/07 06:32:12;;;;;;;30.02;15.80;;;;;;;;;;5049192;28;20055;-79
2022/10/07 06:35:18;;;;;;;28.02;13.38;;;;;;;;;;5049527;28;20099;-79
2022/10/07 06:38:23;;;;;;;25.05;12.52;;;;;;;;;;5049334;28;20214;-77
2022/10/07 06:41:27;;;;;;;30.33;12.80;;;;;;;;;;5049368;28;20056;-76
2022/10/07 06:44:57;;;;;;;27.92;11.90;;;;;;;;;;5049220;28;20040;-77
2022/10/07 06:48:01;;;;;;;32.33;13.00;;;;;;;;;;5049426;28;20044;-75
2022/10/07 06:51:08;;;;;;;28.67;12.77;;;;;;;;;;5049414;28;20040;-75
2022/10/07 06:54:12;;;;;;;29.08;12.75;;;;;;;;;;5052976;28;20052;-78
2022/10/07 06:57:16;;;;;;;23.98;12.02;;;;;;;;;;5053481;28;20060;-77
2022/10/07 07:00:21;;;;;;;20.67;11.48;;;;;;;;;;5052960;28;20076;-75
2022/10/07 07:03:26;;;;;;;24.75;11.55;;;;;;;;;;5052818;28;20040;-74
2022/10/07 07:06:35;;;;;;;30.92;12.05;;;;;;;;;;5052734;28;20063;-74
2022/10/07 07:09:40;;;;;;;23.98;11.15;;;;;;;;;;5052487;28;20048;-77
2022/10/07 07:12:47;;;;;;;24.63;10.50;;;;;;;;;;5052388;28;20412;-76
2022/10/07 07:15:56;;;;;;;31.75;11.77;;;;;;;;;;5052209;28;20044;-75
2022/10/07 07:19:01;;;;;;;17.75;8.98;;;;;;;;;;5052279;28;20048;-74
2022/10/07 07:22:06;;;;;;;16.73;8.43;;;;;;;;;;5052323;28;20044;-76
2022/10/07 07:25:10;;;;;;;22.00;9.02;;;;;;;;;;5053180;28;20045;-77
2022/10/07 07:28:15;;;;;;;27.50;8.98;;;;;;;;;;5051920;28;20053;-75
2022/10/07 07:31:20;;;;;;;13.77;7.78;;;;;;;;;;5052435;28;20500;-75
2022/10/07 07:34:25;;;;;;;16.25;7.30;;;;;;;;;;5052159;28;20051;-78
2022/10/07 07:37:30;;;;;;;12.73;7.43;;;;;;;;;;5052034;28;20377;-77
2022/10/07 07:40:36;;;;;;;16.88;6.68;;;;;;;;;;5051787;28;20040;-75
2022/10/07 07:43:41;;;;;;;15.68;7.25;;;;;;;;;;5051958;28;20056;-79
2022/10/07 07:46:48;;;;;;;18.80;8.50;;;;;;;;;;5051581;28;20104;-76
2022/10/07 07:49:53;;;;;;;12.80;6.35;;;;;;;;;;5051979;28;20398;-78
2022/10/07 07:53:05;;;;;;;9.13;6.05;;;;;;;;;;5051448;28;20045;-75
2022/10/07 07:56:11;;;;;;;21.67;7.00;;;;;;;;;;5051629;28;20476;-77
2022/10/07 07:59:15;;;;;;;12.52;6.55;;;;;;;;;;5051717;28;20410;-75
2022/10/07 08:02:22;;;;;;;21.55;9.30;;;;;;;;;;5051439;28;20348;-77
2022/10/07 08:05:27;;;;;;;11.65;7.60;;;;;;;;;;5051627;28;20072;-77
2022/10/07 08:08:34;;;;;;;21.25;7.20;;;;;;;;;;5051220;28;20041;-74
2022/10/07 08:11:40;;;;;;;19.42;7.90;;;;;;;;;;5051237;28;20211;-76
2022/10/07 08:14:45;;;;;;;22.10;8.85;;;;;;;;;;5051532;28;20048;-77
2022/10/07 08:17:51;;;;;;;31.10;10.27;;;;;;;;;;5051218;28;20040;-76
2022/10/07 08:20:57;;;;;;;23.17;11.88;;;;;;;;;;5052185;28;20047;-75
2022/10/07 08:24:03;;;;;;;28.48;13.98;;;;;;;;;;5051509;28;20064;-75
2022/10/07 08:27:11;;;;;;;16.25;9.63;;;;;;;;;;5051838;28;20056;-75
2022/10/07 08:30:15;;;;;;;10.85;6.40;;;;;;;;;;5052178;28;20056;-75
2022/10/07 08:33:20;;;;;;;10.02;5.22;;;;;;;;;;5050996;28;20041;-76
2022/10/07 08:36:25;;;;;;;10.68;4.50;;;;;;;;;;5051660;28;20370;-75
2022/10/07 08:39:30;;;;;;;9.45;4.53;;;;;;;;;;5051818;28;20400;-77
2022/10/07 08:42:39;;;;;;;12.52;4.80;;;;;;;;;;5051975;28;20037;-77
2022/10/07 08:45:44;;;;;;;10.77;4.30;;;;;;;;;;5051721;28;20043;-74
2022/10/07 08:48:52;;;;;;;7.70;3.83;;;;;;;;;;5051507;28;20041;-78
2022/10/07 08:52:03;;;;;;;8.40;4.20;;;;;;;;;;5051249;28;20045;-76
2022/10/07 08:55:20;;;;;;;7.65;4.28;;;;;;;;;;5051565;28;20041;-75
2022/10/07 08:58:37;;;;;;;10.65;4.07;;;;;;;;;;5051118;28;20029;-76
2022/10/07 09:01:58;;;;;;;9.93;3.75;;;;;;;;;;5051260;28;20386;-76
